Time;durP1;ratioP1;P1;durP2;ratioP2;P2;SDS_P1;SDS_P2;PMS_P1;PMS_P2;Temp;Humidity;BMP_temperature;BMP_pressure;BME280_temperature;BME280_humidity;BME280_pressure;Samples;Min_cycle;Max_cycle;Signal;HPM_P1;HPM_P2
2023/08/08 00:00:09;;;;;;;3.08;2.03;;;12.30;1.00;;;;;;5038820;28;20222;-80
2023/08/08 00:02:35;;;;;;;3.88;2.35;;;12.30;1.00;;;;;;5039244;28;20576;-81
2023/08/08 00:05:00;;;;;;;2.50;1.75;;;13.10;1.00;;;;;;5039494;28;20243;-82
2023/08/08 00:07:29;;;;;;;5.50;2.22;;;13.40;1.00;;;;;;5039010;28;20213;-82
2023/08/08 00:09:55;;;;;;;2.85;1.58;;;12.30;1.00;;;;;;5035955;28;20210;-80
2023/08/08 00:12:21;;;;;;;4.00;2.40;;;12.50;1.00;;;;;;5035082;28;20242;-80
2023/08/08 00:14:47;;;;;;;3.30;1.80;;;13.00;1.00;;;;;;5038722;28;20624;-80
2023/08/08 00:17:13;;;;;;;2.85;1.73;;;12.20;24.60;;;;;;5033390;28;20226;-80
2023/08/08 00:19:38;;;;;;;4.95;2.10;;;12.40;1.00;;;;;;5034163;28;20177;-81
2023/08/08 00:22:04;;;;;;;3.95;2.13;;;13.10;17.10;;;;;;5032540;28;20183;-80
2023/08/08 00:24:29;;;;;;;3.83;1.90;;;12.10;20.70;;;;;;5032464;28;20179;-80
2023/08/08 00:26:55;;;;;;;4.35;2.22;;;12.30;50.70;;;;;;5031948;28;20198;-80
2023/08/08 00:29:21;;;;;;;3.50;1.88;;;12.50;59.50;;;;;;5032344;28;20187;-80
2023/08/08 00:31:46;;;;;;;9.25;2.15;;;12.60;78.70;;;;;;5033889;28;20178;-80
2023/08/08 00:34:12;;;;;;;3.95;1.85;;;12.40;99.90;;;;;;5034042;28;20233;-79
2023/08/08 00:36:37;;;;;;;4.20;2.10;;;12.20;99.90;;;;;;5033348;28;20190;-80
2023/08/08 00:39:03;;;;;;;5.38;1.80;;;12.80;99.90;;;;;;5032060;28;20201;-79
2023/08/08 00:41:28;;;;;;;4.25;2.25;;;12.60;99.90;;;;;;5033682;28;20293;-80
2023/08/08 00:43:54;;;;;;;4.00;1.90;;;13.10;99.90;;;;;;5032088;28;20187;-80
2023/08/08 00:46:21;;;;;;;4.18;1.92;;;12.40;99.90;;;;;;5032920;28;20206;-80
2023/08/08 00:48:47;;;;;;;3.10;1.90;;;13.20;99.90;;;;;;5032020;28;20255;-79
2023/08/08 00:51:14;;;;;;;3.13;2.05;;;12.30;99.90;;;;;;5033510;28;20260;-80
2023/08/08 00:53:39;;;;;;;3.00;2.33;;;12.00;99.90;;;;;;5032238;28;20175;-80
2023/08/08 00:56:05;;;;;;;2.97;1.90;;;12.60;99.90;;;;;;5031645;28;20175;-80
2023/08/08 00:58:31;;;;;;;4.95;2.83;;;12.70;99.90;;;;;;5032276;28;20171;-81
2023/08/08 01:00:59;;;;;;;5.78;3.13;;;12.20;99.90;;;;;;5034850;28;20258;-80
2023/08/08 01:03:26;;;;;;;4.82;2.30;;;11.90;1.00;;;;;;5031976;28;20187;-80
2023/08/08 01:06:01;;;;;;;3.28;2.50;;;11.90;1.00;;;;;;5031663;28;20178;-80
2023/08/08 01:08:35;;;;;;;6.35;2.20;;;11.90;1.00;;;;;;5033493;28;20178;-80
2023/08/08 01:11:02;;;;;;;4.13;2.38;;;12.80;1.00;;;;;;5031792;28;20205;-81
2023/08/08 01:13:29;;;;;;;6.22;2.90;;;12.60;1.00;;;;;;5031788;28;20667;-80
2023/08/08 01:15:57;;;;;;;6.13;2.85;;;11.90;1.00;;;;;;5031247;28;20183;-80
2023/08/08 01:18:23;;;;;;;5.00;2.25;;;11.90;1.00;;;;;;5031927;28;20822;-80
2023/08/08 01:20:50;;;;;;;5.70;2.60;;;11.90;1.00;;;;;;5032764;28;20189;-81
2023/08/08 01:23:38;;;;;;;4.65;2.40;;;12.70;1.00;;;;;;5033036;28;20174;-81
2023/08/08 01:26:04;;;;;;;3.03;2.45;;;11.80;89.40;;;;;;5032709;28;20167;-81
2023/08/08 01:28:30;;;;;;;3.50;2.30;;;12.30;82.60;;;;;;5031791;28;20595;-80
2023/08/08 01:30:56;;;;;;;2.70;2.30;;;12.00;99.90;;;;;;5032838;28;20179;-79
2023/08/08 01:33:22;;;;;;;6.40;2.40;;;12.30;99.90;;;;;;5031602;28;20181;-80
2023/08/08 01:35:54;;;;;;;4.00;2.30;;;11.80;99.90;;;;;;5032073;28;20183;-79
2023/08/08 01:38:31;;;;;;;4.45;2.42;;;11.80;99.90;;;;;;5035211;28;20277;-79
2023/08/08 01:40:57;;;;;;;2.28;2.08;;;11.80;99.90;;;;;;5035072;28;20202;-79
2023/08/08 01:43:24;;;;;;;4.07;2.50;;;11.80;1.00;;;;;;5035136;28;20175;-79
2023/08/08 01:45:51;;;;;;;4.30;2.10;;;12.50;1.00;;;;;;5034610;28;20175;-80
2023/08/08 01:48:17;;;;;;;4.40;2.42;;;11.80;1.00;;;;;;5036273;28;20690;-82
2023/08/08 01:50:43;;;;;;;4.80;2.60;;;11.80;1.00;;;;;;5034602;28;20221;-81
2023/08/08 01:53:09;;;;;;;4.00;2.20;;;12.80;1.00;;;;;;5034992;28;20183;-82
2023/08/08 01:55:34;;;;;;;3.75;2.40;;;12.70;1.00;;;;;;5034879;28;20194;-82
2023/08/08 01:58:00;;;;;;;3.38;2.47;;;13.00;99.90;;;;;;5035087;28;20213;-81
2023/08/08 02:00:26;;;;;;;7.32;2.97;;;12.10;99.90;;;;;;5036154;28;20202;-81
2023/08/08 02:02:51;;;;;;;5.93;2.30;;;12.30;1.00;;;;;;5036111;28;20258;-81
2023/08/08 02:05:17;;;;;;;4.03;2.40;;;11.90;1.00;;;;;;5036173;28;20179;-82
2023/08/08 02:07:42;;;;;;;3.63;2.05;;;12.70;1.00;;;;;;5034610;28;20541;-81
2023/08/08 02:10:08;;;;;;;3.92;2.22;;;12.00;1.00;;;;;;5000282;28;20229;-82
2023/08/08 02:12:34;;;;;;;3.78;2.33;;;12.00;99.90;;;;;;4998548;28;20190;-81
2023/08/08 02:14:59;;;;;;;4.13;2.53;;;12.90;1.00;;;;;;5014497;28;20176;-82
2023/08/08 02:17:26;;;;;;;3.65;2.10;;;12.70;99.90;;;;;;4998350;28;20234;-81
2023/08/08 02:19:52;;;;;;;2.50;2.30;;;13.10;99.90;;;;;;4998114;28;20259;-81
2023/08/08 02:22:18;;;;;;;3.72;2.35;;;12.90;99.90;;;;;;4998398;28;20175;-81
2023/08/08 02:24:43;;;;;;;3.88;2.38;;;12.50;99.90;;;;;;4998022;28;20614;-82
2023/08/08 02:27:09;;;;;;;4.30;2.30;;;12.20;99.90;;;;;;5015299;28;20271;-82
2023/08/08 02:29:35;;;;;;;2.97;2.35;;;12.70;99.90;;;;;;4997951;28;20183;-81
2023/08/08 02:32:00;;;;;;;6.07;3.30;;;12.70;99.90;;;;;;5015264;28;20691;-82
2023/08/08 02:34:26;;;;;;;2.97;2.10;;;12.40;99.90;;;;;;4997572;28;20202;-80
2023/08/08 02:36:52;;;;;;;5.30;2.88;;;12.40;1.00;;;;;;5014920;28;20195;-81
2023/08/08 02:39:17;;;;;;;5.45;2.80;;;12.00;1.00;;;;;;5015096;28;20567;-81
2023/08/08 02:41:43;;;;;;;2.75;2.35;;;12.00;1.00;;;;;;5016016;28;20172;-81
2023/08/08 02:44:09;;;;;;;3.53;2.40;;;12.00;1.00;;;;;;5021209;28;20253;-81
2023/08/08 02:46:36;;;;;;;3.40;2.38;;;13.10;99.90;;;;;;5002953;28;20199;-81
2023/08/08 02:49:02;;;;;;;3.75;2.50;;;13.00;1.00;;;;;;5002262;28;20205;-81
2023/08/08 02:51:27;;;;;;;4.38;2.17;;;12.00;1.00;;;;;;5003089;28;20865;-80
2023/08/08 02:53:53;;;;;;;3.10;2.22;;;12.20;99.90;;;;;;5003113;28;20185;-80
2023/08/08 02:56:19;;;;;;;4.05;2.25;;;12.70;99.90;;;;;;5021549;28;20203;-80
2023/08/08 02:58:44;;;;;;;3.25;2.22;;;12.90;99.90;;;;;;5003164;28;20184;-81
2023/08/08 03:01:10;;;;;;;2.85;2.20;;;13.00;99.90;;;;;;5004295;28;20982;-81
2023/08/08 03:03:36;;;;;;;3.67;2.20;;;12.40;99.90;;;;;;5021029;28;20183;-80
2023/08/08 03:06:02;;;;;;;2.45;2.25;;;13.60;99.90;;;;;;5004160;28;20211;-83
2023/08/08 03:08:28;;;;;;;3.40;2.13;;;13.90;99.90;;;;;;5005487;28;20191;-80
2023/08/08 03:10:53;;;;;;;2.55;2.25;;;12.40;99.90;;;;;;5004863;28;20189;-81
2023/08/08 03:13:19;;;;;;;4.85;2.20;;;13.20;99.90;;;;;;5021991;28;20199;-81
2023/08/08 03:15:45;;;;;;;3.70;2.28;;;12.50;91.80;;;;;;5003696;28;20186;-80
2023/08/08 03:18:11;;;;;;;4.75;2.58;;;13.30;1.00;;;;;;5004021;28;20588;-81
2023/08/08 03:20:36;;;;;;;4.93;2.65;;;13.30;1.00;;;;;;5004255;28;20203;-82
2023/08/08 03:23:02;;;;;;;3.70;2.42;;;12.50;1.00;;;;;;5022344;28;20183;-82
2023/08/08 03:25:28;;;;;;;3.05;2.33;;;12.50;1.00;;;;;;5005970;28;20180;-81
2023/08/08 03:27:53;;;;;;;3.70;2.60;;;12.60;1.00;;;;;;5005688;28;20196;-82
2023/08/08 03:30:19;;;;;;;2.63;2.38;;;12.50;2.50;;;;;;5005702;28;20191;-82
2023/08/08 03:32:44;;;;;;;4.10;2.50;;;13.90;20.00;;;;;;5011210;28;20772;-82
2023/08/08 03:35:10;;;;;;;4.10;2.75;;;12.90;99.90;;;;;;5003254;28;20261;-81
2023/08/08 03:37:35;;;;;;;6.30;3.20;;;12.50;99.90;;;;;;5001899;28;20330;-81
2023/08/08 03:40:01;;;;;;;8.77;3.15;;;13.50;98.00;;;;;;5002119;28;20681;-81
2023/08/08 03:42:27;;;;;;;2.92;2.72;;;13.00;78.30;;;;;;5002669;28;20237;-81
2023/08/08 03:44:52;;;;;;;4.95;3.17;;;12.60;99.90;;;;;;5019419;28;20294;-81
2023/08/08 03:47:18;;;;;;;4.63;3.40;;;12.90;99.90;;;;;;5019581;28;20275;-81
2023/08/08 03:49:44;;;;;;;3.20;2.90;;;13.10;99.90;;;;;;5020282;28;20197;-81
2023/08/08 03:52:09;;;;;;;4.90;3.00;;;13.40;99.90;;;;;;5020376;28;20191;-81
2023/08/08 03:54:35;;;;;;;3.45;2.95;;;14.00;99.90;;;;;;5002332;28;20680;-80
2023/08/08 03:57:01;;;;;;;5.60;3.15;;;12.60;99.90;;;;;;5018917;28;20200;-81
2023/08/08 03:59:26;;;;;;;4.38;3.20;;;14.00;1.00;;;;;;5001749;28;20191;-81
2023/08/08 04:01:52;;;;;;;3.83;2.88;;;14.40;99.90;;;;;;5019839;28;20175;-81
2023/08/08 04:04:18;;;;;;;3.97;2.80;;;12.60;99.90;;;;;;5019955;28;20618;-81
2023/08/08 04:06:44;;;;;;;3.03;2.70;;;12.50;99.90;;;;;;5002500;28;20203;-82
2023/08/08 04:09:09;;;;;;;4.15;3.05;;;13.40;99.90;;;;;;5002081;28;20195;-81
2023/08/08 04:11:35;;;;;;;3.33;2.80;;;12.70;99.90;;;;;;5002618;28;20237;-80
2023/08/08 04:14:01;;;;;;;8.18;3.00;;;12.80;99.90;;;;;;5002186;28;20187;-81
2023/08/08 04:16:27;;;;;;;4.78;2.97;;;13.40;99.90;;;;;;5002169;28;20304;-84
2023/08/08 04:18:53;;;;;;;3.55;2.38;;;13.40;99.90;;;;;;5019037;28;20666;-81
2023/08/08 04:21:19;;;;;;;3.13;2.50;;;13.50;1.00;;;;;;5001566;28;20207;-81
2023/08/08 04:23:44;;;;;;;5.47;2.80;;;13.00;1.00;;;;;;5001889;28;20187;-81
2023/08/08 04:26:10;;;;;;;3.47;2.88;;;14.20;1.00;;;;;;5002814;28;20184;-80
2023/08/08 04:28:35;;;;;;;3.72;2.47;;;13.40;1.00;;;;;;5002922;28;20175;-81
2023/08/08 04:31:01;;;;;;;5.60;2.67;;;13.90;1.00;;;;;;5003460;28;20220;-83
2023/08/08 04:33:26;;;;;;;3.42;2.38;;;13.20;1.00;;;;;;5004761;28;20186;-82
2023/08/08 04:35:52;;;;;;;2.70;2.50;;;14.10;1.00;;;;;;5002133;28;20195;-81
2023/08/08 04:38:18;;;;;;;3.75;2.70;;;13.20;1.00;;;;;;5002083;28;20199;-82
2023/08/08 04:40:43;;;;;;;3.75;2.70;;;13.40;1.00;;;;;;5001962;28;20250;-82
2023/08/08 04:43:09;;;;;;;4.25;2.60;;;14.00;1.00;;;;;;5019537;28;20210;-82
2023/08/08 04:45:35;;;;;;;5.45;3.13;;;13.70;1.00;;;;;;5001293;28;20205;-80
2023/08/08 04:48:00;;;;;;;2.70;2.50;;;13.10;1.00;;;;;;5001814;28;20231;-81
2023/08/08 04:50:26;;;;;;;2.78;2.05;;;13.10;1.00;;;;;;5002318;28;20175;-81
2023/08/08 04:52:51;;;;;;;2.65;2.38;;;13.00;1.00;;;;;;5019728;28;20231;-81
2023/08/08 04:55:17;;;;;;;3.03;2.20;;;13.20;1.00;;;;;;5001265;28;20180;-80
2023/08/08 04:57:43;;;;;;;2.55;2.00;;;13.30;1.00;;;;;;5001993;28;20210;-81
2023/08/08 05:00:09;;;;;;;3.72;2.17;;;13.90;99.90;;;;;;5000591;28;20213;-81
2023/08/08 05:02:35;;;;;;;3.47;2.30;;;13.30;99.90;;;;;;5001125;28;20176;-81
2023/08/08 05:05:01;;;;;;;2.20;2.00;;;13.60;99.90;;;;;;5002071;28;20175;-84
2023/08/08 05:07:27;;;;;;;3.47;2.10;;;13.40;99.90;;;;;;5018878;28;20222;-82
2023/08/08 05:09:53;;;;;;;3.22;2.08;;;13.40;99.90;;;;;;5001628;28;20226;-81
2023/08/08 05:12:18;;;;;;;4.70;2.17;;;14.60;99.90;;;;;;5005844;28;20187;-81
2023/08/08 05:14:44;;;;;;;2.90;2.17;;;14.30;99.90;;;;;;5006530;28;20183;-82
2023/08/08 05:17:10;;;;;;;3.70;2.05;;;13.50;99.90;;;;;;5024172;28;20200;-81
2023/08/08 05:19:35;;;;;;;3.08;1.92;;;13.60;99.90;;;;;;5007049;28;20214;-82
2023/08/08 05:22:01;;;;;;;2.90;1.73;;;13.60;99.90;;;;;;5006781;28;20182;-82
2023/08/08 05:24:27;;;;;;;2.30;1.80;;;13.80;99.90;;;;;;5024038;28;20199;-82
2023/08/08 05:26:53;;;;;;;2.58;1.90;;;13.70;99.90;;;;;;5023590;28;20206;-81
2023/08/08 05:29:19;;;;;;;2.15;1.75;;;13.90;99.90;;;;;;5006919;28;20229;-81
2023/08/08 05:31:46;;;;;;;3.97;1.90;;;14.00;65.40;;;;;;5006691;28;20183;-81
2023/08/08 05:34:12;;;;;;;3.05;1.70;;;14.40;35.00;;;;;;5004902;28;20172;-81
2023/08/08 05:36:37;;;;;;;2.80;1.70;;;13.80;98.20;;;;;;5004048;28;20202;-81
2023/08/08 05:39:03;;;;;;;2.83;2.17;;;14.10;92.60;;;;;;5022872;28;20203;-81
2023/08/08 05:41:29;;;;;;;2.85;1.85;;;13.90;70.10;;;;;;5006849;28;20215;-83
2023/08/08 05:43:54;;;;;;;2.30;1.90;;;14.90;16.70;;;;;;5005061;28;20186;-82
2023/08/08 05:46:20;;;;;;;2.38;1.70;;;14.00;1.00;;;;;;5003689;28;20227;-81
2023/08/08 05:48:46;;;;;;;3.70;1.85;;;14.00;1.00;;;;;;5004041;28;20191;-83
2023/08/08 05:51:12;;;;;;;2.42;1.80;;;14.10;1.00;;;;;;5003696;28;20679;-82
2023/08/08 05:53:38;;;;;;;3.67;1.83;;;14.70;1.00;;;;;;5003630;28;20187;-81
2023/08/08 05:56:04;;;;;;;2.30;1.70;;;14.40;1.00;;;;;;5002927;28;20180;-82
2023/08/08 05:58:29;;;;;;;2.28;1.80;;;14.50;1.00;;;;;;5003108;28;20202;-81
2023/08/08 06:00:55;;;;;;;2.72;1.70;;;14.50;1.00;;;;;;5020738;28;20215;-82
2023/08/08 06:03:21;;;;;;;2.40;1.77;;;14.50;1.00;;;;;;5003806;28;20266;-83
2023/08/08 06:05:46;;;;;;;3.83;1.90;;;14.60;1.00;;;;;;5003431;28;20213;-84
2023/08/08 06:08:13;;;;;;;4.88;2.20;;;14.70;1.00;;;;;;5002045;28;20210;-81
2023/08/08 06:10:39;;;;;;;6.35;2.20;;;14.60;1.00;;;;;;5001617;28;20188;-82
2023/08/08 06:13:04;;;;;;;4.45;2.10;;;14.50;1.00;;;;;;5033339;28;20193;-85
2023/08/08 06:15:30;;;;;;;4.68;2.63;;;14.60;1.00;;;;;;5023448;28;20190;-83
2023/08/08 06:17:57;;;;;;;3.72;2.10;;;14.70;1.00;;;;;;5038096;28;20268;-84
2023/08/08 06:20:23;;;;;;;3.83;2.25;;;15.00;1.00;;;;;;5023357;28;20207;-76
2023/08/08 06:22:49;;;;;;;5.43;2.33;;;14.60;1.00;;;;;;5022003;28;20235;-82
2023/08/08 06:25:14;;;;;;;4.38;2.30;;;15.00;1.00;;;;;;5022710;28;20183;-83
2023/08/08 06:27:40;;;;;;;3.65;2.30;;;14.90;1.00;;;;;;5022302;28;20286;-83
2023/08/08 06:30:08;;;;;;;6.30;2.35;;;14.90;1.00;;;;;;5021674;28;20183;-84
2023/08/08 06:32:34;;;;;;;8.15;3.15;;;15.10;1.00;;;;;;5022759;28;20252;-82
2023/08/08 06:34:59;;;;;;;6.10;2.20;;;15.20;1.00;;;;;;5021946;28;20633;-82
2023/08/08 06:37:25;;;;;;;10.63;2.47;;;15.60;1.00;;;;;;5021163;28;20202;-82
2023/08/08 06:39:50;;;;;;;3.63;2.35;;;15.50;1.00;;;;;;5021943;28;20211;-85
2023/08/08 06:42:16;;;;;;;4.82;2.42;;;15.40;1.00;;;;;;5042557;28;20520;-84
2023/08/08 06:44:43;;;;;;;8.88;2.53;;;15.60;1.00;;;;;;5035907;28;20177;-81
2023/08/08 06:47:09;;;;;;;6.90;2.42;;;15.80;1.00;;;;;;5040952;28;20222;-83
2023/08/08 06:49:34;;;;;;;6.55;2.22;;;16.10;99.90;;;;;;5059707;28;20198;-84
2023/08/08 06:52:00;;;;;;;4.30;2.97;;;16.00;99.90;;;;;;5042456;28;20539;-83
2023/08/08 06:54:28;;;;;;;4.50;2.20;;;15.90;99.90;;;;;;5041819;28;20344;-82
2023/08/08 06:56:54;;;;;;;4.13;2.38;;;16.30;99.90;;;;;;5041542;28;20198;-83
2023/08/08 06:59:20;;;;;;;4.97;2.50;;;16.10;99.90;;;;;;5041287;28;20189;-84
2023/08/08 07:01:45;;;;;;;6.25;2.45;;;16.20;99.90;;;;;;5030820;28;20179;-81
2023/08/08 07:04:11;;;;;;;5.18;2.45;;;16.90;99.90;;;;;;5039499;28;20179;-83
2023/08/08 07:06:36;;;;;;;6.40;2.33;;;18.50;99.90;;;;;;5020263;28;20638;-83
2023/08/08 07:09:02;;;;;;;6.78;2.50;;;19.40;9.30;;;;;;5039275;28;20565;-81
2023/08/08 07:11:28;;;;;;;4.55;2.33;;;19.70;1.00;;;;;;5037638;28;20775;-81
2023/08/08 07:13:54;;;;;;;6.38;1.92;;;19.60;1.00;;;;;;5019634;28;20194;-82
2023/08/08 07:16:19;;;;;;;2.47;2.20;;;18.20;1.00;;;;;;5019601;28;20666;-82
2023/08/08 07:18:45;;;;;;;5.90;2.10;;;18.10;1.00;;;;;;5019558;28;20671;-82
2023/08/08 07:21:10;;;;;;;4.05;2.25;;;18.40;1.00;;;;;;5037243;28;20286;-84
2023/08/08 07:23:36;;;;;;;4.28;2.25;;;18.30;1.00;;;;;;5018199;28;20636;-83
2023/08/08 07:26:01;;;;;;;4.15;2.20;;;17.80;1.00;;;;;;5018248;28;20281;-83
2023/08/08 07:28:27;;;;;;;8.32;2.72;;;17.60;1.00;;;;;;5019736;28;20171;-82
2023/08/08 07:30:52;;;;;;;3.40;1.95;;;17.40;1.00;;;;;;5019128;28;20189;-83
2023/08/08 07:33:18;;;;;;;4.32;2.55;;;17.40;1.00;;;;;;5020780;28;20194;-82
2023/08/08 07:35:44;;;;;;;6.93;2.65;;;17.10;1.00;;;;;;5019636;28;20187;-81
2023/08/08 07:38:09;;;;;;;5.18;2.63;;;16.80;1.00;;;;;;5020438;28;20222;-81
2023/08/08 07:40:35;;;;;;;5.28;2.90;;;16.70;1.00;;;;;;5019804;28;20222;-83
2023/08/08 07:43:01;;;;;;;4.97;2.50;;;16.60;1.00;;;;;;5019896;28;20556;-83
2023/08/08 07:45:27;;;;;;;6.55;2.53;;;16.40;1.00;;;;;;5037392;28;20171;-83
2023/08/08 07:47:52;;;;;;;3.45;2.65;;;16.70;1.00;;;;;;5019987;28;20196;-82
2023/08/08 07:50:18;;;;;;;5.65;2.60;;;16.80;1.00;;;;;;5019418;28;20187;-82
2023/08/08 07:52:44;;;;;;;5.63;2.90;;;16.90;1.00;;;;;;5037170;28;20632;-83
2023/08/08 07:55:09;;;;;;;3.78;2.65;;;16.80;1.00;;;;;;5018761;28;20423;-83
2023/08/08 07:57:35;;;;;;;4.22;2.70;;;16.90;1.00;;;;;;5016979;28;20211;-81
2023/08/08 08:00:11;;;;;;;6.18;3.00;;;16.90;1.00;;;;;;5019351;28;20202;-81
2023/08/08 08:02:37;;;;;;;6.15;2.75;;;16.90;1.00;;;;;;5029935;28;20190;-82
2023/08/08 08:05:05;;;;;;;5.88;2.67;;;17.10;1.00;;;;;;5040035;28;20651;-81
2023/08/08 08:07:32;;;;;;;5.13;2.65;;;17.20;1.00;;;;;;5040012;28;20202;-81
2023/08/08 08:09:57;;;;;;;8.80;2.95;;;17.40;1.00;;;;;;5039404;28;20198;-83
2023/08/08 08:12:23;;;;;;;3.85;2.60;;;17.40;1.00;;;;;;5038853;28;20667;-82
2023/08/08 08:14:49;;;;;;;5.10;2.65;;;17.50;1.00;;;;;;5015273;28;20179;-81
2023/08/08 08:17:14;;;;;;;5.03;2.65;;;17.60;1.00;;;;;;5041168;28;20332;-82
2023/08/08 08:19:40;;;;;;;5.05;2.95;;;17.70;1.00;;;;;;5055460;28;20209;-84
2023/08/08 08:22:05;;;;;;;5.18;2.70;;;17.70;1.00;;;;;;5037034;28;20213;-82
2023/08/08 08:24:31;;;;;;;5.13;2.60;;;17.60;1.00;;;;;;5034182;28;20182;-85
2023/08/08 08:26:56;;;;;;;3.53;2.60;;;17.50;1.00;;;;;;5003429;28;20673;-83
2023/08/08 08:29:22;;;;;;;6.07;2.88;;;17.40;1.00;;;;;;5033247;28;20179;-82
2023/08/08 08:31:48;;;;;;;4.38;2.60;;;17.50;1.00;;;;;;5017444;28;20225;-81
2023/08/08 08:34:13;;;;;;;6.97;2.60;;;17.60;1.00;;;;;;5056863;28;20170;-81
2023/08/08 08:36:39;;;;;;;6.55;3.15;;;17.40;1.00;;;;;;5017773;28;20218;-85
2023/08/08 08:39:05;;;;;;;4.40;2.85;;;17.40;1.00;;;;;;5038387;28;20175;-84
2023/08/08 08:41:31;;;;;;;4.18;2.28;;;17.50;1.00;;;;;;5026023;28;20213;-84
2023/08/08 08:43:57;;;;;;;5.60;2.78;;;17.60;1.00;;;;;;5038724;28;20541;-84
2023/08/08 08:46:26;;;;;;;6.57;2.40;;;17.60;1.00;;;;;;5035876;28;20205;-82
2023/08/08 08:48:54;;;;;;;5.03;2.33;;;17.70;1.00;;;;;;5037076;28;20180;-83
2023/08/08 08:51:20;;;;;;;5.70;2.53;;;17.70;1.00;;;;;;5018282;28;20253;-84
2023/08/08 08:53:46;;;;;;;5.13;2.20;;;17.80;1.00;;;;;;5036427;28;20175;-84
2023/08/08 08:56:16;;;;;;;4.70;2.47;;;17.80;1.00;;;;;;5025091;28;20194;-84
2023/08/08 08:58:42;;;;;;;6.32;3.22;;;17.70;1.00;;;;;;5017062;28;20221;-84
2023/08/08 09:01:09;;;;;;;5.00;2.63;;;17.50;1.00;;;;;;5018910;28;20199;-84
2023/08/08 09:03:36;;;;;;;4.03;2.67;;;17.70;1.00;;;;;;5037068;28;20170;-83
2023/08/08 09:06:02;;;;;;;3.67;2.28;;;17.80;1.00;;;;;;5018529;28;20244;-83
2023/08/08 09:08:29;;;;;;;3.63;2.20;;;17.90;1.00;;;;;;5018422;28;20213;-84
2023/08/08 09:10:56;;;;;;;2.75;2.03;;;18.00;1.00;;;;;;5035954;28;20567;-85
2023/08/08 09:13:22;;;;;;;3.67;1.90;;;18.10;1.00;;;;;;5036325;28;20175;-81
2023/08/08 09:15:51;;;;;;;2.72;2.15;;;18.10;1.00;;;;;;5045416;28;20182;-83
2023/08/08 09:18:16;;;;;;;2.78;2.33;;;18.20;1.00;;;;;;5053753;28;20551;-85
2023/08/08 09:20:48;;;;;;;3.97;2.10;;;18.30;1.00;;;;;;5032947;28;20213;-83
2023/08/08 09:23:14;;;;;;;3.65;1.92;;;18.20;1.00;;;;;;5019314;28;20185;-83
2023/08/08 09:25:39;;;;;;;2.88;2.00;;;17.90;1.00;;;;;;5018275;28;20179;-86
2023/08/08 09:28:05;;;;;;;5.03;2.50;;;17.80;1.00;;;;;;5018432;28;20203;-82
2023/08/08 09:30:31;;;;;;;3.90;2.28;;;17.30;1.00;;;;;;5018210;28;20175;-84
2023/08/08 09:33:00;;;;;;;2.65;2.10;;;17.00;1.00;;;;;;5017317;28;20187;-83
2023/08/08 09:35:28;;;;;;;3.25;2.20;;;16.80;1.00;;;;;;5033938;28;20524;-83
2023/08/08 09:37:55;;;;;;;3.05;2.40;;;16.80;1.00;;;;;;5023850;28;20208;-84
2023/08/08 09:40:23;;;;;;;7.05;2.70;;;16.70;1.00;;;;;;5018796;28;20198;-82
2023/08/08 09:42:51;;;;;;;5.00;2.85;;;16.90;1.00;;;;;;5032126;28;20271;-83
2023/08/08 09:45:17;;;;;;;4.45;2.97;;;17.00;1.00;;;;;;5036495;28;20590;-84
2023/08/08 09:47:43;;;;;;;4.35;3.03;;;16.90;1.00;;;;;;5017872;28;20191;-82
2023/08/08 09:50:08;;;;;;;6.28;3.38;;;16.50;34.70;;;;;;5020383;28;20232;-80
2023/08/08 09:52:35;;;;;;;3.72;2.88;;;16.10;99.90;;;;;;5036416;28;20214;-81
2023/08/08 09:55:02;;;;;;;4.32;2.97;;;15.80;1.00;;;;;;5034585;28;20221;-81
2023/08/08 09:57:28;;;;;;;3.00;2.70;;;15.80;1.00;;;;;;5017508;28;20601;-80
2023/08/08 09:59:55;;;;;;;4.20;3.05;;;15.80;1.00;;;;;;5037551;28;20221;-80
2023/08/08 10:02:21;;;;;;;4.75;3.08;;;16.10;1.00;;;;;;5038813;28;20526;-81
2023/08/08 10:04:47;;;;;;;4.07;3.67;;;16.20;1.00;;;;;;5039824;28;20240;-81
2023/08/08 10:07:13;;;;;;;3.53;2.97;;;16.30;1.00;;;;;;5038172;28;20197;-81
2023/08/08 10:09:39;;;;;;;6.28;3.42;;;16.30;1.00;;;;;;5039983;28;20252;-81
2023/08/08 10:12:06;;;;;;;7.15;3.63;;;16.50;1.00;;;;;;5022960;28;20657;-80
2023/08/08 10:14:34;;;;;;;6.95;3.83;;;16.40;1.00;;;;;;5022533;28;20641;-82
2023/08/08 10:17:03;;;;;;;4.88;3.50;;;16.50;1.00;;;;;;5021610;28;20199;-81
2023/08/08 10:19:29;;;;;;;5.63;3.78;;;16.40;99.90;;;;;;5037542;28;20178;-80
2023/08/08 10:22:00;;;;;;;4.47;3.60;;;16.40;1.00;;;;;;5039380;28;20179;-81
2023/08/08 10:24:25;;;;;;;4.35;3.53;;;16.60;1.00;;;;;;5021806;28;20179;-81
2023/08/08 10:26:59;;;;;;;4.72;3.60;;;16.80;1.00;;;;;;5039731;28;20195;-81
2023/08/08 10:29:26;;;;;;;7.28;3.85;;;17.20;1.00;;;;;;5022332;28;20183;-80
2023/08/08 10:32:07;;;;;;;5.75;4.20;;;17.40;99.90;;;;;;5023645;28;20190;-81
2023/08/08 10:34:38;;;;;;;6.55;3.90;;;17.10;99.90;;;;;;5022680;28;20561;-81
2023/08/08 10:37:08;;;;;;;7.18;3.53;;;16.70;1.00;;;;;;5039507;28;20195;-82
2023/08/08 10:39:34;;;;;;;4.25;3.50;;;16.80;99.90;;;;;;5020032;28;20217;-82
2023/08/08 10:42:04;;;;;;;6.18;3.80;;;16.50;99.90;;;;;;5037321;28;20354;-82
2023/08/08 10:44:29;;;;;;;6.95;3.88;;;16.50;99.90;;;;;;5047096;28;20170;-83
2023/08/08 10:46:56;;;;;;;4.53;3.65;;;16.60;1.00;;;;;;5023430;28;20199;-80
2023/08/08 10:49:22;;;;;;;5.15;3.92;;;16.70;99.90;;;;;;5019500;28;20178;-84
2023/08/08 10:51:51;;;;;;;3.92;3.20;;;16.60;99.90;;;;;;5028688;28;20182;-85
2023/08/08 10:54:20;;;;;;;6.95;3.70;;;16.60;99.90;;;;;;5040928;28;20781;-83
2023/08/08 10:56:54;;;;;;;8.73;4.40;;;16.60;99.90;;;;;;5017056;28;20583;-84
2023/08/08 10:59:22;;;;;;;7.90;4.20;;;16.60;99.90;;;;;;5019759;28;20547;-84
2023/08/08 11:01:51;;;;;;;6.60;3.75;;;16.80;1.00;;;;;;5038447;28;20205;-83
2023/08/08 11:04:24;;;;;;;9.48;4.28;;;16.80;1.00;;;;;;5021802;28;20217;-84
2023/08/08 11:06:50;;;;;;;5.30;4.30;;;16.80;99.90;;;;;;5036140;28;20195;-81
2023/08/08 11:09:17;;;;;;;8.25;3.67;;;16.90;1.00;;;;;;5020412;28;20194;-84
2023/08/08 11:11:44;;;;;;;7.40;3.88;;;17.20;99.90;;;;;;5022164;28;20186;-84
2023/08/08 11:14:14;;;;;;;4.70;3.78;;;17.20;99.90;;;;;;5022074;28;20274;-82
2023/08/08 11:16:41;;;;;;;5.05;3.90;;;17.40;99.90;;;;;;5022250;28;20310;-83
2023/08/08 11:19:07;;;;;;;5.78;4.75;;;17.50;99.90;;;;;;5021140;28;20197;-84
2023/08/08 11:21:36;;;;;;;5.05;3.55;;;17.70;99.90;;;;;;5023888;28;20238;-83
2023/08/08 11:24:02;;;;;;;6.40;3.47;;;17.90;99.90;;;;;;5024205;28;20238;-83
2023/08/08 11:26:31;;;;;;;4.15;3.28;;;17.90;99.90;;;;;;5023674;28;20191;-83
2023/08/08 11:28:58;;;;;;;4.90;3.50;;;17.80;99.90;;;;;;5042204;28;20163;-83
2023/08/08 11:31:24;;;;;;;6.18;3.42;;;18.00;99.90;;;;;;5025131;28;20185;-84
2023/08/08 11:33:53;;;;;;;3.63;3.30;;;18.10;99.90;;;;;;5024432;28;20214;-85
2023/08/08 11:36:20;;;;;;;4.45;3.35;;;18.40;99.90;;;;;;5024359;28;20245;-81
2023/08/08 11:38:46;;;;;;;4.60;3.47;;;18.60;98.30;;;;;;5023388;28;20182;-84
2023/08/08 11:41:13;;;;;;;4.32;3.40;;;18.80;59.00;;;;;;5022178;28;20293;-83
2023/08/08 11:43:40;;;;;;;5.80;3.13;;;18.90;1.00;;;;;;5022954;28;20179;-82
2023/08/08 11:46:12;;;;;;;3.80;3.40;;;18.80;1.00;;;;;;5024195;28;20212;-83
2023/08/08 11:48:38;;;;;;;5.65;3.40;;;18.80;1.00;;;;;;5024619;28;20175;-82
2023/08/08 11:51:08;;;;;;;3.10;2.80;;;18.80;1.00;;;;;;5022910;28;20236;-81
2023/08/08 11:53:35;;;;;;;4.78;3.60;;;18.70;1.00;;;;;;5023390;28;20175;-84
2023/08/08 11:56:03;;;;;;;4.22;2.83;;;18.90;1.00;;;;;;5021987;28;20183;-82
2023/08/08 11:58:29;;;;;;;3.95;2.70;;;19.00;1.00;;;;;;5020929;28;20182;-82
2023/08/08 12:00:56;;;;;;;4.22;2.75;;;19.00;1.00;;;;;;5040024;28;20206;-81
2023/08/08 12:03:22;;;;;;;3.65;2.90;;;19.10;1.00;;;;;;5025031;28;20171;-81
2023/08/08 12:05:48;;;;;;;4.28;2.60;;;19.30;1.00;;;;;;5021689;28;20171;-80
2023/08/08 12:08:23;;;;;;;4.38;2.90;;;19.20;1.00;;;;;;5022286;28;20214;-82
2023/08/08 12:10:54;;;;;;;7.00;3.17;;;19.00;1.00;;;;;;5039502;28;20185;-81
2023/08/08 12:13:21;;;;;;;5.65;3.20;;;18.80;1.00;;;;;;5022186;28;20186;-83
2023/08/08 12:15:47;;;;;;;5.50;3.25;;;18.80;1.00;;;;;;5023257;28;20245;-82
2023/08/08 12:18:17;;;;;;;3.95;2.70;;;18.80;1.00;;;;;;5022659;28;20195;-82
2023/08/08 12:20:43;;;;;;;3.33;2.50;;;18.90;1.00;;;;;;5022458;28;20214;-81
2023/08/08 12:23:09;;;;;;;3.90;2.88;;;19.10;1.00;;;;;;5022587;28;20179;-84
2023/08/08 12:25:35;;;;;;;2.70;2.42;;;19.20;1.00;;;;;;5038385;28;20171;-83
2023/08/08 12:28:02;;;;;;;2.78;2.20;;;19.10;1.00;;;;;;5021453;28;20574;-82
2023/08/08 12:30:28;;;;;;;3.83;2.42;;;19.00;1.00;;;;;;5040399;28;20179;-83
2023/08/08 12:32:53;;;;;;;5.30;2.58;;;19.10;1.00;;;;;;5022553;28;20191;-84
2023/08/08 12:35:20;;;;;;;2.75;2.45;;;19.20;1.00;;;;;;5022709;28;20286;-81
2023/08/08 12:37:46;;;;;;;4.70;2.95;;;19.30;1.00;;;;;;5022229;28;20238;-83
2023/08/08 12:40:12;;;;;;;3.28;2.22;;;17.00;1.00;;;;;;5033223;28;20210;-83
2023/08/08 12:42:38;;;;;;;2.45;2.20;;;19.50;1.00;;;;;;5041465;28;20177;-85
2023/08/08 12:45:05;;;;;;;2.80;2.10;;;19.70;1.00;;;;;;5057333;28;20174;-83
2023/08/08 12:47:31;;;;;;;4.97;2.15;;;19.60;1.00;;;;;;5039367;28;20201;-84